Time;durP1;ratioP1;P1;durP2;ratioP2;P2;SDS_P1;SDS_P2;PMS_P1;PMS_P2;Temp;Humidity;BMP_temperature;BMP_pressure;BME280_temperature;BME280_humidity;BME280_pressure;Samples;Min_cycle;Max_cycle;Signal;HPM_P1;HPM_P2
2024/03/15 00:01:51;;;;;;;;;;;;;;;-146.32;100.00;63746.28;5146332;22;19958;-87
2024/03/15 00:04:16;;;;;;;;;;;;;;;-146.32;100.00;63746.28;5168762;22;19969;-88
2024/03/15 00:06:41;;;;;;;;;;;;;;;-146.32;100.00;63746.28;5168064;22;20434;-88
2024/03/15 00:09:02;;;;;;;;;;;;;;;-146.32;100.00;63746.28;5168557;22;19954;-88
2024/03/15 00:11:25;;;;;;;;;;;;;;;-146.32;100.00;63746.28;5124395;22;20245;-88
2024/03/15 00:13:45;;;;;;;;;;;;;;;-146.32;100.00;63746.28;5168858;22;19930;-88
2024/03/15 00:16:06;;;;;;;;;;;;;;;-146.32;100.00;63746.28;5169562;22;20018;-89
2024/03/15 00:18:36;;;;;;;;;;;;;;;-146.32;100.00;63746.28;5149362;22;19926;-87
2024/03/15 00:20:57;;;;;;;;;;;;;;;-146.32;100.00;63746.28;5149354;22;19925;-88
2024/03/15 00:23:18;;;;;;;;;;;;;;;-146.32;100.00;63746.28;5170035;22;20373;-88
2024/03/15 00:25:42;;;;;;;;;;;;;;;-146.32;100.00;63746.28;5149732;22;19932;-87
2024/03/15 00:28:05;;;;;;;;;;;;;;;-146.32;100.00;63746.28;5169580;22;19930;-87
2024/03/15 00:30:30;;;;;;;;;;;;;;;-146.32;100.00;63746.28;5149249;22;20472;-87
2024/03/15 00:32:54;;;;;;;;;;;;;;;-146.32;100.00;63746.28;5170847;22;19969;-87
2024/03/15 00:35:19;;;;;;;;;;;;;;;-146.32;100.00;63746.28;5147873;22;20330;-88
2024/03/15 00:37:41;;;;;;;;;;;;;;;-146.32;100.00;63746.28;5170605;22;19930;-85
2024/03/15 00:40:02;;;;;;;;;;;;;;;-146.32;100.00;63746.28;5148426;22;19974;-87
2024/03/15 00:42:23;;;;;;;;;;;;;;;-146.32;100.00;63746.28;5169340;22;19930;-87
2024/03/15 00:44:44;;;;;;;;;;;;;;;-146.32;100.00;63746.28;5148115;22;19930;-88
2024/03/15 00:47:05;;;;;;;;;;;;;;;-146.32;100.00;63746.28;5169717;22;19995;-88
2024/03/15 00:49:26;;;;;;;;;;;;;;;-146.32;100.00;63746.28;5169793;22;19934;-88
2024/03/15 00:51:47;;;;;;;;;;;;;;;-146.32;100.00;63746.28;5169465;22;19930;-88
2024/03/15 00:54:12;;;;;;;;;;;;;;;-146.32;100.00;63746.28;5170016;22;19926;-88
2024/03/15 00:56:33;;;;;;;;;;;;;;;-146.32;100.00;63746.28;5170748;22;20302;-87
2024/03/15 00:58:54;;;;;;;;;;;;;;;-146.32;100.00;63746.28;5169666;22;19977;-88
2024/03/15 01:01:19;;;;;;;;;;;;;;;-146.32;100.00;63746.28;5168991;22;19942;-87
2024/03/15 01:03:41;;;;;;;;;;;;;;;-146.32;100.00;63746.28;5148951;22;19955;-87
2024/03/15 01:06:02;;;;;;;;;;;;;;;-146.32;100.00;63746.28;5169687;22;19930;-87
2024/03/15 01:08:26;;;;;;;;;;;;;;;-146.32;100.00;63746.28;5148038;22;20372;-89
2024/03/15 01:10:47;;;;;;;;;;;;;;;-146.32;100.00;63746.28;5170243;22;20017;-87
2024/03/15 01:13:08;;;;;;;;;;;;;;;-146.32;100.00;63746.28;5169182;22;19972;-88
2024/03/15 01:15:37;;;;;;;;;;;;;;;-146.32;100.00;63746.28;5168804;22;19991;-89
2024/03/15 01:17:59;;;;;;;;;;;;;;;-146.32;100.00;63746.28;5170395;22;19969;-88
2024/03/15 01:20:24;;;;;;;;;;;;;;;-146.32;100.00;63746.28;5170000;22;19929;-88
2024/03/15 01:22:46;;;;;;;;;;;;;;;-146.32;100.00;63746.28;5177771;22;19926;-88
2024/03/15 01:25:11;;;;;;;;;;;;;;;-146.32;100.00;63746.28;5151264;22;19974;-87
2024/03/15 01:27:35;;;;;;;;;;;;;;;-146.32;100.00;63746.28;5171563;22;19970;-89
2024/03/15 01:30:00;;;;;;;;;;;;;;;-146.32;100.00;63746.28;5149702;22;19992;-88
2024/03/15 01:32:22;;;;;;;;;;;;;;;-146.32;100.00;63746.28;5169474;22;20007;-89
2024/03/15 01:34:43;;;;;;;;;;;;;;;-146.32;100.00;63746.28;5169546;22;20379;-89
2024/03/15 01:37:04;;;;;;;;;;;;;;;-146.32;100.00;63746.28;5169717;22;20007;-89
2024/03/15 01:39:25;;;;;;;;;;;;;;;-146.32;100.00;63746.28;5169089;22;19966;-89
2024/03/15 01:41:49;;;;;;;;;;;;;;;-146.32;100.00;63746.28;5169428;22;19927;-89
2024/03/15 01:44:16;;;;;;;;;;;;;;;-146.32;100.00;63746.28;5147271;22;19930;-89
2024/03/15 01:46:40;;;;;;;;;;;;;;;-146.32;100.00;63746.28;5148588;22;19927;-89
2024/03/15 01:49:02;;;;;;;;;;;;;;;-146.32;100.00;63746.28;5148480;22;20162;-90
2024/03/15 01:51:27;;;;;;;;;;;;;;;-146.32;100.00;63746.28;5148135;22;19975;-88
2024/03/15 01:53:49;;;;;;;;;;;;;;;-146.32;100.00;63746.28;5148181;22;19958;-87
2024/03/15 01:56:09;;;;;;;;;;;;;;;-146.32;100.00;63746.28;5168855;22;19950;-88
2024/03/15 01:58:30;;;;;;;;;;;;;;;-146.32;100.00;63746.28;5168895;22;19926;-88
2024/03/15 02:00:51;;;;;;;;;;;;;;;-146.32;100.00;63746.28;5146779;22;19927;-88
2024/03/15 02:03:12;;;;;;;;;;;;;;;-146.32;100.00;63746.28;5147990;22;19930;-87
2024/03/15 02:05:35;;;;;;;;;;;;;;;-146.32;100.00;63746.28;5168864;22;19974;-88
2024/03/15 02:07:56;;;;;;;;;;;;;;;-146.32;100.00;63746.28;5168860;22;19926;-88
2024/03/15 02:10:17;;;;;;;;;;;;;;;-146.32;100.00;63746.28;5146916;22;19974;-88
2024/03/15 02:12:38;;;;;;;;;;;;;;;-146.32;100.00;63746.28;5168173;22;20010;-88
2024/03/15 02:14:59;;;;;;;;;;;;;;;-146.32;100.00;63746.28;5168110;22;20025;-88
2024/03/15 02:17:20;;;;;;;;;;;;;;;-146.32;100.00;63746.28;5168260;22;20332;-86
2024/03/15 02:19:44;;;;;;;;;;;;;;;-146.32;100.00;63746.28;5168207;22;19934;-89
2024/03/15 02:22:05;;;;;;;;;;;;;;;-146.32;100.00;63746.28;5147958;22;19951;-90
2024/03/15 02:24:26;;;;;;;;;;;;;;;-146.32;100.00;63746.28;5168724;22;19966;-90
2024/03/15 02:26:47;;;;;;;;;;;;;;;-146.32;100.00;63746.28;5147185;22;19958;-91
2024/03/15 02:29:08;;;;;;;;;;;;;;;-146.32;100.00;63746.28;5168094;22;20039;-89
2024/03/15 02:31:29;;;;;;;;;;;;;;;-146.32;100.00;63746.28;5147996;22;20031;-91
2024/03/15 02:33:50;;;;;;;;;;;;;;;-146.32;100.00;63746.28;5169081;22;19986;-88
2024/03/15 02:36:15;;;;;;;;;;;;;;;-146.32;100.00;63746.28;5168540;22;19931;-89
2024/03/15 02:38:36;;;;;;;;;;;;;;;-146.32;100.00;63746.28;5170072;22;19926;-89
2024/03/15 02:40:57;;;;;;;;;;;;;;;-146.32;100.00;63746.28;5168328;22;20362;-89
2024/03/15 02:43:21;;;;;;;;;;;;;;;-146.32;100.00;63746.28;5168073;22;20429;-89
2024/03/15 02:45:41;;;;;;;;;;;;;;;-146.32;100.00;63746.28;5147652;22;20258;-90
2024/03/15 02:48:02;;;;;;;;;;;;;;;-146.32;100.00;63746.28;5147685;22;19931;-87
2024/03/15 02:50:23;;;;;;;;;;;;;;;-146.32;100.00;63746.28;5146061;22;19931;-86
2024/03/15 02:52:47;;;;;;;;;;;;;;;-146.32;100.00;63746.28;5147126;22;19966;-87
2024/03/15 02:55:12;;;;;;;;;;;;;;;-146.32;100.00;63746.28;5169337;22;19932;-85
2024/03/15 02:57:35;;;;;;;;;;;;;;;-146.32;100.00;63746.28;5147533;22;19958;-87
2024/03/15 02:59:59;;;;;;;;;;;;;;;-146.32;100.00;63746.28;5148008;22;19929;-88
2024/03/15 03:02:23;;;;;;;;;;;;;;;-146.32;100.00;63746.28;5125776;22;20517;-87
2024/03/15 03:04:45;;;;;;;;;;;;;;;-146.32;100.00;63746.28;5169344;22;19934;-88
2024/03/15 03:07:08;;;;;;;;;;;;;;;-146.32;100.00;63746.28;5167916;22;19958;-87
2024/03/15 03:09:32;;;;;;;;;;;;;;;-146.32;100.00;63746.28;5169610;22;19969;-88
2024/03/15 03:11:53;;;;;;;;;;;;;;;-146.32;100.00;63746.28;5168077;22;20193;-88
2024/03/15 03:14:14;;;;;;;;;;;;;;;-146.32;100.00;63746.28;5168241;22;19951;-89
2024/03/15 03:16:36;;;;;;;;;;;;;;;-146.32;100.00;63746.28;5169095;22;20031;-87
2024/03/15 03:18:56;;;;;;;;;;;;;;;-146.32;100.00;63746.28;5168250;22;19930;-89
2024/03/15 03:21:17;;;;;;;;;;;;;;;-146.32;100.00;63746.28;5167622;22;19935;-88
2024/03/15 03:23:42;;;;;;;;;;;;;;;-146.32;100.00;63746.28;5168370;22;19974;-88
2024/03/15 03:26:11;;;;;;;;;;;;;;;-146.32;100.00;63746.28;5146736;22;20034;-89
2024/03/15 03:28:35;;;;;;;;;;;;;;;-146.32;100.00;63746.28;5170582;22;20400;-88
2024/03/15 03:30:56;;;;;;;;;;;;;;;-146.32;100.00;63746.28;5167989;22;19950;-87
2024/03/15 03:33:20;;;;;;;;;;;;;;;-146.32;100.00;63746.28;5168324;22;20406;-88
2024/03/15 03:35:40;;;;;;;;;;;;;;;-146.32;100.00;63746.28;5169133;22;20291;-87
2024/03/15 03:38:02;;;;;;;;;;;;;;;-146.32;100.00;63746.28;5168131;22;19973;-89
2024/03/15 03:40:24;;;;;;;;;;;;;;;-146.32;100.00;63746.28;5147236;22;19998;-88
2024/03/15 03:42:46;;;;;;;;;;;;;;;-146.32;100.00;63746.28;5124940;22;20323;-88
2024/03/15 03:45:15;;;;;;;;;;;;;;;-146.32;100.00;63746.28;5168269;22;19930;-89
2024/03/15 03:47:36;;;;;;;;;;;;;;;-146.32;100.00;63746.28;5169044;22;19926;-88
2024/03/15 03:49:57;;;;;;;;;;;;;;;-146.32;100.00;63746.28;5169880;22;19925;-88
2024/03/15 03:52:20;;;;;;;;;;;;;;;-146.32;100.00;63746.28;5169881;22;19965;-89
2024/03/15 03:54:41;;;;;;;;;;;;;;;-146.32;100.00;63746.28;5170099;22;19926;-87
2024/03/15 03:57:01;;;;;;;;;;;;;;;-146.32;100.00;63746.28;5169951;22;19999;-88
2024/03/15 03:59:22;;;;;;;;;;;;;;;-146.32;100.00;63746.28;5169305;22;19930;-87
2024/03/15 04:01:51;;;;;;;;;;;;;;;-146.32;100.00;63746.28;5169526;22;20011;-88
2024/03/15 04:04:15;;;;;;;;;;;;;;;-146.32;100.00;63746.28;5172043;22;19993;-88
2024/03/15 04:06:39;;;;;;;;;;;;;;;-146.32;100.00;63746.28;5150148;22;19971;-88
2024/03/15 04:09:00;;;;;;;;;;;;;;;-146.32;100.00;63746.28;5157450;22;19991;-89
2024/03/15 04:11:24;;;;;;;;;;;;;;;-146.32;100.00;63746.28;5160962;22;19926;-87
2024/03/15 04:13:49;;;;;;;;;;;;;;;-146.32;100.00;63746.28;5171234;22;19926;-87
2024/03/15 04:16:13;;;;;;;;;;;;;;;-146.32;100.00;63746.28;5150700;22;19931;-87
2024/03/15 04:18:36;;;;;;;;;;;;;;;-146.32;100.00;63746.28;5170770;22;20050;-87
2024/03/15 04:21:01;;;;;;;;;;;;;;;-146.32;100.00;63746.28;5170595;22;19925;-86
2024/03/15 04:23:22;;;;;;;;;;;;;;;-146.32;100.00;63746.28;5148333;22;19934;-87
2024/03/15 04:25:43;;;;;;;;;;;;;;;-146.32;100.00;63746.28;5148464;22;19934;-87
2024/03/15 04:28:04;;;;;;;;;;;;;;;-146.32;100.00;63746.28;5148644;22;20239;-87
2024/03/15 04:30:29;;;;;;;;;;;;;;;-146.32;100.00;63746.28;5168925;22;19957;-86
2024/03/15 04:32:50;;;;;;;;;;;;;;;-146.32;100.00;63746.28;5168453;22;19966;-88
2024/03/15 04:35:13;;;;;;;;;;;;;;;-146.32;100.00;63746.28;5148458;22;19942;-87
2024/03/15 04:37:38;;;;;;;;;;;;;;;-146.32;100.00;63746.28;5169668;22;19958;-89
2024/03/15 04:39:59;;;;;;;;;;;;;;;-146.32;100.00;63746.28;5169545;22;20374;-89
2024/03/15 04:42:32;;;;;;;;;;;;;;;-146.32;100.00;63746.28;5169231;22;19977;-87
2024/03/15 04:44:53;;;;;;;;;;;;;;;-146.32;100.00;63746.28;5149954;22;19957;-88
2024/03/15 04:47:20;;;;;;;;;;;;;;;-146.32;100.00;63746.28;5170037;22;19930;-88
2024/03/15 04:49:42;;;;;;;;;;;;;;;-146.32;100.00;63746.28;5157092;22;20226;-89
2024/03/15 04:52:03;;;;;;;;;;;;;;;-146.32;100.00;63746.28;5149796;22;20274;-86
2024/03/15 04:54:25;;;;;;;;;;;;;;;-146.32;100.00;63746.28;5171411;22;19942;-88
2024/03/15 04:56:48;;;;;;;;;;;;;;;-146.32;100.00;63746.28;5170228;22;20014;-85
2024/03/15 04:59:09;;;;;;;;;;;;;;;-146.32;100.00;63746.28;5169853;22;20332;-84
2024/03/15 05:01:33;;;;;;;;;;;;;;;-146.32;100.00;63746.28;5169002;22;20401;-86
2024/03/15 05:03:54;;;;;;;;;;;;;;;-146.32;100.00;63746.28;5169047;22;19959;-85
2024/03/15 05:06:25;;;;;;;;;;;;;;;-146.32;100.00;63746.28;5168652;22;19934;-84
2024/03/15 05:08:47;;;;;;;;;;;;;;;-146.32;100.00;63746.28;5171015;22;19926;-85
2024/03/15 05:11:08;;;;;;;;;;;;;;;-146.32;100.00;63746.28;5146789;22;19978;-87
2024/03/15 05:13:33;;;;;;;;;;;;;;;-146.32;100.00;63746.28;5147831;22;19935;-86
2024/03/15 05:15:58;;;;;;;;;;;;;;;-146.32;100.00;63746.28;5148694;22;19999;-87
2024/03/15 05:18:22;;;;;;;;;;;;;;;-146.32;100.00;63746.28;5169175;22;19972;-86
2024/03/15 05:20:43;;;;;;;;;;;;;;;-146.32;100.00;63746.28;5168760;22;20620;-87
2024/03/15 05:23:07;;;;;;;;;;;;;;;-146.32;100.00;63746.28;5148354;22;19930;-87
2024/03/15 05:25:31;;;;;;;;;;;;;;;-146.32;100.00;63746.28;5148872;22;19927;-87
2024/03/15 05:27:55;;;;;;;;;;;;;;;-146.32;100.00;63746.28;5169524;22;19926;-89
2024/03/15 05:30:23;;;;;;;;;;;;;;;-146.32;100.00;63746.28;5170544;22;19942;-89
2024/03/15 05:32:45;;;;;;;;;;;;;;;-146.32;100.00;63746.28;5172283;22;19973;-90
2024/03/15 05:35:18;;;;;;;;;;;;;;;-146.32;100.00;63746.28;5149106;22;20033;-90
2024/03/15 05:37:42;;;;;;;;;;;;;;;-146.32;100.00;63746.28;5150534;22;19935;-87
2024/03/15 05:40:04;;;;;;;;;;;;;;;-146.32;100.00;63746.28;5170195;22;19942;-87
2024/03/15 05:42:31;;;;;;;;;;;;;;;-146.32;100.00;63746.28;5170299;22;20007;-89
2024/03/15 05:44:55;;;;;;;;;;;;;;;-146.32;100.00;63746.28;5150842;22;20358;-90
2024/03/15 05:47:16;;;;;;;;;;;;;;;-146.32;100.00;63746.28;5171406;22;20341;-88
2024/03/15 05:49:37;;;;;;;;;;;;;;;-146.32;100.00;63746.28;5148129;22;20739;-88
2024/03/15 05:52:01;;;;;;;;;;;;;;;-146.32;100.00;63746.28;5128203;22;20286;-87
2024/03/15 05:54:33;;;;;;;;;;;;;;;-146.32;100.00;63746.28;5171422;22;20015;-87
2024/03/15 05:57:02;;;;;;;;;;;;;;;-146.32;100.00;63746.28;5173675;22;19929;-90
2024/03/15 05:59:32;;;;;;;;;;;;;;;-146.32;100.00;63746.28;5150729;22;20337;-89
2024/03/15 06:02:09;;;;;;;;;;;;;;;-146.32;100.00;63746.28;5173013;22;20655;-87
2024/03/15 06:04:32;;;;;;;;;;;;;;;-146.32;100.00;63746.28;5150752;22;20378;-87
2024/03/15 06:06:56;;;;;;;;;;;;;;;-146.32;100.00;63746.28;5169886;22;19929;-86
2024/03/15 06:09:21;;;;;;;;;;;;;;;-146.32;100.00;63746.28;5148749;22;19931;-86
2024/03/15 06:11:41;;;;;;;;;;;;;;;-146.32;100.00;63746.28;5148028;22;19931;-86
2024/03/15 06:14:04;;;;;;;;;;;;;;;-146.32;100.00;63746.28;5169173;22;20006;-89
2024/03/15 06:16:40;;;;;;;;;;;;;;;-146.32;100.00;63746.28;5148933;22;19926;-83
2024/03/15 06:19:05;;;;;;;;;;;;;;;-146.32;100.00;63746.28;5150165;22;19958;-85
2024/03/15 06:21:29;;;;;;;;;;;;;;;-146.32;100.00;63746.28;5169531;22;19957;-82
2024/03/15 06:23:51;;;;;;;;;;;;;;;-146.32;100.00;63746.28;5169114;22;19935;-85
2024/03/15 06:26:12;;;;;;;;;;;;;;;-146.32;100.00;63746.28;5124572;22;20035;-83
2024/03/15 06:28:34;;;;;;;;;;;;;;;-146.32;100.00;63746.28;5166812;22;19930;-85
2024/03/15 06:30:55;;;;;;;;;;;;;;;-146.32;100.00;63746.28;5168374;22;19993;-86
2024/03/15 06:33:28;;;;;;;;;;;;;;;-146.32;100.00;63746.28;5145654;22;20329;-88
2024/03/15 06:35:54;;;;;;;;;;;;;;;-146.32;100.00;63746.28;5148550;22;19927;-88
2024/03/15 06:38:27;;;;;;;;;;;;;;;-146.32;100.00;63746.28;5147512;22;20034;-89
2024/03/15 06:41:07;;;;;;;;;;;;;;;-146.32;100.00;63746.28;5150193;22;19929;-86
2024/03/15 06:43:41;;;;;;;;;;;;;;;-146.32;100.00;63746.28;5150640;22;19930;-86
2024/03/15 06:46:08;;;;;;;;;;;;;;;-146.32;100.00;63746.28;5170917;22;20391;-86
2024/03/15 06:48:44;;;;;;;;;;;;;;;-146.32;100.00;63746.28;5148296;22;19926;-84
2024/03/15 06:53:40;;;;;;;;;;;;;;;-146.32;100.00;63746.28;5149194;22;20565;-91
2024/03/15 06:56:05;;;;;;;;;;;;;;;-146.32;100.00;63746.28;5168933;22;19983;-88
2024/03/15 06:58:26;;;;;;;;;;;;;;;-146.32;100.00;63746.28;5146850;22;19950;-88
2024/03/15 07:00:53;;;;;;;;;;;;;;;-146.32;100.00;63746.28;5167638;22;20397;-87
2024/03/15 07:03:18;;;;;;;;;;;;;;;-146.32;100.00;63746.28;5147899;22;20393;-87
2024/03/15 07:05:40;;;;;;;;;;;;;;;-146.32;100.00;63746.28;5144474;23;20302;-87
2024/03/15 07:08:05;;;;;;;;;;;;;;;-146.32;100.00;63746.28;5163879;23;19993;-86
2024/03/15 07:10:29;;;;;;;;;;;;;;;-146.32;100.00;63746.28;5164026;23;20255;-87
2024/03/15 07:12:53;;;;;;;;;;;;;;;-146.32;100.00;63746.28;5143983;23;19946;-85
2024/03/15 07:39:14;;;;;;;;;;;;;;;-146.32;100.00;63746.28;5188227;22;19942;-82
2024/03/15 07:41:37;;;;;;;;;;;;;;;-146.32;100.00;63746.28;5165304;22;19958;-83
2024/03/15 07:43:59;;;;;;;;;;;;;;;-146.32;100.00;63746.28;5147006;22;19927;-82
2024/03/15 07:46:19;;;;;;;;;;;;;;;-146.32;100.00;63746.28;5168763;22;19973;-81
2024/03/15 07:48:41;;;;;;;;;;;;;;;-146.32;100.00;63746.28;5169538;22;19930;-82
2024/03/15 07:51:02;;;;;;;;;;;;;;;-146.32;100.00;63746.28;5147082;22;19958;-85
2024/03/15 07:53:23;;;;;;;;;;;;;;;-146.32;100.00;63746.28;5168503;22;20679;-82
2024/03/15 07:55:44;;;;;;;;;;;;;;;-146.32;100.00;63746.28;5169014;22;19992;-83
2024/03/15 07:58:04;;;;;;;;;;;;;;;-146.32;100.00;63746.28;5169030;22;20405;-83
2024/03/15 08:00:25;;;;;;;;;;;;;;;-146.32;100.00;63746.28;5166047;22;20360;-83
2024/03/15 08:02:46;;;;;;;;;;;;;;;-146.32;100.00;63746.28;5147131;22;19927;-84
2024/03/15 08:05:07;;;;;;;;;;;;;;;-146.32;100.00;63746.28;5147506;22;19935;-83
2024/03/15 08:07:28;;;;;;;;;;;;;;;-146.32;100.00;63746.28;5147605;22;20000;-82
2024/03/15 08:09:49;;;;;;;;;;;;;;;-146.32;100.00;63746.28;5168027;22;20035;-84
2024/03/15 08:12:11;;;;;;;;;;;;;;;-146.32;100.00;63746.28;5168622;22;19962;-82
2024/03/15 08:14:35;;;;;;;;;;;;;;;-146.32;100.00;63746.28;5168780;22;19972;-87
2024/03/15 08:16:57;;;;;;;;;;;;;;;-146.32;100.00;63746.28;5169878;22;19926;-86
2024/03/15 08:19:18;;;;;;;;;;;;;;;-146.32;100.00;63746.28;5169017;22;19966;-88
2024/03/15 08:21:42;;;;;;;;;;;;;;;-146.32;100.00;63746.28;5169824;22;19930;-88
2024/03/15 08:24:04;;;;;;;;;;;;;;;-146.32;100.00;63746.28;5146674;22;20295;-86
2024/03/15 08:26:25;;;;;;;;;;;;;;;-146.32;100.00;63746.28;5169576;22;20325;-87
2024/03/15 08:28:45;;;;;;;;;;;;;;;-146.32;100.00;63746.28;5148102;22;19970;-89
2024/03/15 08:31:06;;;;;;;;;;;;;;;-146.32;100.00;63746.28;5146947;22;19926;-90
2024/03/15 08:33:27;;;;;;;;;;;;;;;-146.32;100.00;63746.28;5148547;22;19931;-89
2024/03/15 08:35:48;;;;;;;;;;;;;;;-146.32;100.00;63746.28;5149155;22;20373;-91
2024/03/15 08:38:10;;;;;;;;;;;;;;;-146.32;100.00;63746.28;5149119;22;20317;-87
2024/03/15 08:40:32;;;;;;;;;;;;;;;-146.32;100.00;63746.28;5170064;22;20084;-87
2024/03/15 08:42:52;;;;;;;;;;;;;;;-146.32;100.00;63746.28;5170161;22;19929;-87
2024/03/15 08:45:14;;;;;;;;;;;;;;;-146.32;100.00;63746.28;5148865;22;20366;-87
2024/03/15 08:47:35;;;;;;;;;;;;;;;-146.32;100.00;63746.28;5148778;22;19926;-87
2024/03/15 08:50:00;;;;;;;;;;;;;;;-146.32;100.00;63746.28;5170114;22;19926;-86
2024/03/15 08:52:21;;;;;;;;;;;;;;;-146.32;100.00;63746.28;5127947;22;19931;-85
2024/03/15 08:54:42;;;;;;;;;;;;;;;-146.32;100.00;63746.28;5169891;22;20003;-88
2024/03/15 08:57:05;;;;;;;;;;;;;;;-146.32;100.00;63746.28;5148713;22;19932;-87
2024/03/15 08:59:26;;;;;;;;;;;;;;;-146.32;100.00;63746.28;5149178;22;19965;-88
2024/03/15 09:01:47;;;;;;;;;;;;;;;-146.32;100.00;63746.28;5126985;22;20307;-87
2024/03/15 09:04:09;;;;;;;;;;;;;;;-146.32;100.00;63746.28;5148823;22;19931;-88
2024/03/15 09:06:30;;;;;;;;;;;;;;;-146.32;100.00;63746.28;5170387;22;20039;-87
2024/03/15 09:08:54;;;;;;;;;;;;;;;-146.32;100.00;63746.28;5169769;22;20313;-87
2024/03/15 09:11:15;;;;;;;;;;;;;;;-146.32;100.00;63746.28;5170258;22;20392;-88
2024/03/15 09:13:36;;;;;;;;;;;;;;;-146.32;100.00;63746.28;5148980;22;19975;-87
2024/03/15 09:15:57;;;;;;;;;;;;;;;-146.32;100.00;63746.28;5149403;22;19979;-86
2024/03/15 09:18:18;;;;;;;;;;;;;;;-146.32;100.00;63746.28;5150188;22;20003;-89
2024/03/15 09:20:42;;;;;;;;;;;;;;;-146.32;100.00;63746.28;5128372;22;19980;-89
2024/03/15 09:23:03;;;;;;;;;;;;;;;-146.32;100.00;63746.28;5171154;22;20235;-88
2024/03/15 09:25:26;;;;;;;;;;;;;;;-146.32;100.00;63746.28;5170409;22;19926;-90
2024/03/15 09:27:48;;;;;;;;;;;;;;;-146.32;100.00;63746.28;5170776;22;19996;-90
2024/03/15 09:30:17;;;;;;;;;;;;;;;-146.32;100.00;63746.28;5149189;22;19938;-89
2024/03/15 09:32:38;;;;;;;;;;;;;;;-146.32;100.00;63746.28;5171870;22;19930;-87
2024/03/15 09:35:04;;;;;;;;;;;;;;;-146.32;100.00;63746.28;5148327;22;20457;-89
2024/03/15 09:37:25;;;;;;;;;;;;;;;-146.32;100.00;63746.28;5150270;22;19930;-89
2024/03/15 09:39:46;;;;;;;;;;;;;;;-146.32;100.00;63746.28;5169136;22;19966;-90
2024/03/15 09:42:07;;;;;;;;;;;;;;;-146.32;100.00;63746.28;5148100;22;19955;-92
2024/03/15 09:44:31;;;;;;;;;;;;;;;-146.32;100.00;63746.28;5148778;22;19975;-89
2024/03/15 09:46:52;;;;;;;;;;;;;;;-146.32;100.00;63746.28;5150216;22;19961;-86
2024/03/15 09:49:12;;;;;;;;;;;;;;;-146.32;100.00;63746.28;5168786;22;19954;-89
2024/03/15 09:51:34;;;;;;;;;;;;;;;-146.32;100.00;63746.28;5168376;22;19991;-86
2024/03/15 09:53:55;;;;;;;;;;;;;;;-146.32;100.00;63746.28;5147485;22;20344;-88
2024/03/15 09:56:16;;;;;;;;;;;;;;;-146.32;100.00;63746.28;5146889;22;19943;-87
2024/03/15 10:59:31;;;;;;;;;;;;;;;-146.32;100.00;63746.28;5191796;22;19926;-90
2024/03/15 11:01:52;;;;;;;;;;;;;;;-146.32;100.00;63746.28;5145537;22;19990;-92
2024/03/15 11:04:12;;;;;;;;;;;;;;;-146.32;100.00;63746.28;5148127;22;20385;-90
2024/03/15 11:06:40;;;;;;;;;;;;;;;-146.32;100.00;63746.28;5149801;22;19931;-87
2024/03/15 11:09:11;;;;;;;;;;;;;;;-146.32;100.00;63746.28;5170137;22;19962;-89
2024/03/15 11:11:31;;;;;;;;;;;;;;;-146.32;100.00;63746.28;5168795;22;19930;-89
2024/03/15 11:13:52;;;;;;;;;;;;;;;-146.32;100.00;63746.28;5169819;22;20437;-89
2024/03/15 11:16:20;;;;;;;;;;;;;;;-146.32;100.00;63746.28;5170125;22;19957;-91
2024/03/15 11:18:40;;;;;;;;;;;;;;;-146.32;100.00;63746.28;5171171;22;20271;-88
2024/03/15 11:21:01;;;;;;;;;;;;;;;-146.32;100.00;63746.28;5169577;22;20235;-87
2024/03/15 11:23:22;;;;;;;;;;;;;;;-146.32;100.00;63746.28;5147475;22;19934;-86
2024/03/15 11:25:44;;;;;;;;;;;;;;;-146.32;100.00;63746.28;5170697;22;19967;-91
2024/03/15 11:28:05;;;;;;;;;;;;;;;-146.32;100.00;63746.28;5171559;22;19927;-89
2024/03/15 11:30:26;;;;;;;;;;;;;;;-146.32;100.00;63746.28;5149322;22;19966;-88
2024/03/15 11:32:47;;;;;;;;;;;;;;;-146.32;100.00;63746.28;5172644;22;19995;-85
2024/03/15 11:35:07;;;;;;;;;;;;;;;-146.32;100.00;63746.28;5186329;22;20055;-89
2024/03/15 11:37:28;;;;;;;;;;;;;;;-146.32;100.00;63746.28;5172952;22;19926;-90
2024/03/15 11:39:56;;;;;;;;;;;;;;;-146.32;100.00;63746.28;5147025;22;19982;-90
2024/03/15 11:42:17;;;;;;;;;;;;;;;-146.32;100.00;63746.28;5148098;22;19935;-91
2024/03/15 11:44:38;;;;;;;;;;;;;;;-146.32;100.00;63746.28;5146079;22;19966;-87
2024/03/15 11:46:59;;;;;;;;;;;;;;;-146.32;100.00;63746.28;5168952;22;19934;-87
2024/03/15 11:49:19;;;;;;;;;;;;;;;-146.32;100.00;63746.28;5169581;22;19957;-91
2024/03/15 11:51:40;;;;;;;;;;;;;;;-146.32;100.00;63746.28;5170129;22;19932;-91
2024/03/15 11:54:01;;;;;;;;;;;;;;;-146.32;100.00;63746.28;5170463;22;19994;-90
2024/03/15 11:56:21;;;;;;;;;;;;;;;-146.32;100.00;63746.28;5148370;22;19945;-86
2024/03/15 11:58:42;;;;;;;;;;;;;;;-146.32;100.00;63746.28;5169638;22;20359;-91
2024/03/15 12:01:02;;;;;;;;;;;;;;;-146.32;100.00;63746.28;5169448;22;19990;-89
2024/03/15 12:03:24;;;;;;;;;;;;;;;-146.32;100.00;63746.28;5169781;22;19995;-89
2024/03/15 12:05:45;;;;;;;;;;;;;;;-146.32;100.00;63746.28;5170013;22;20283;-88
2024/03/15 12:08:08;;;;;;;;;;;;;;;-146.32;100.00;63746.28;5149990;22;19973;-89
2024/03/15 12:10:29;;;;;;;;;;;;;;;-146.32;100.00;63746.28;5171416;22;19926;-93
2024/03/15 12:12:49;;;;;;;;;;;;;;;-146.32;100.00;63746.28;5171649;22;19982;-93
2024/03/15 12:15:24;;;;;;;;;;;;;;;-146.32;100.00;63746.28;5172168;22;19962;-91
2024/03/15 12:17:45;;;;;;;;;;;;;;;-146.32;100.00;63746.28;5171460;22;20274;-91
2024/03/15 12:20:05;;;;;;;;;;;;;;;-146.32;100.00;63746.28;5171149;22;19926;-90
2024/03/15 12:22:26;;;;;;;;;;;;;;;-146.32;100.00;63746.28;5149580;22;19976;-87
2024/03/15 12:24:46;;;;;;;;;;;;;;;-146.32;100.00;63746.28;5148745;22;20267;-90
2024/03/15 12:27:07;;;;;;;;;;;;;;;-146.32;100.00;63746.28;5171732;22;19962;-90
2024/03/15 12:29:28;;;;;;;;;;;;;;;-146.32;100.00;63746.28;5150016;22;19931;-89
2024/03/15 12:31:49;;;;;;;;;;;;;;;-146.32;100.00;63746.28;5171659;22;20002;-91
2024/03/15 12:34:10;;;;;;;;;;;;;;;-146.32;100.00;63746.28;5150394;22;20023;-92
2024/03/15 12:36:30;;;;;;;;;;;;;;;-146.32;100.00;63746.28;5171717;22;20032;-88
2024/03/15 12:38:51;;;;;;;;;;;;;;;-146.32;100.00;63746.28;5171725;22;19927;-90
2024/03/15 12:41:11;;;;;;;;;;;;;;;-146.32;100.00;63746.28;5149270;22;19931;-92
2024/03/15 12:43:32;;;;;;;;;;;;;;;-146.32;100.00;63746.28;5150530;22;19950;-90
2024/03/15 12:45:54;;;;;;;;;;;;;;;-146.32;100.00;63746.28;5171529;22;20006;-89
2024/03/15 12:48:16;;;;;;;;;;;;;;;-146.32;100.00;63746.28;5172030;22;19926;-90
2024/03/15 12:50:37;;;;;;;;;;;;;;;-146.32;100.00;63746.28;5172247;22;19965;-91
2024/03/15 12:52:59;;;;;;;;;;;;;;;-146.32;100.00;63746.28;5172033;22;20439;-93
2024/03/15 12:55:20;;;;;;;;;;;;;;;-146.32;100.00;63746.28;5173589;22;20321;-92
2024/03/15 12:57:42;;;;;;;;;;;;;;;-146.32;100.00;63746.28;5172945;22;19970;-93
2024/03/15 13:00:05;;;;;;;;;;;;;;;-146.32;100.00;63746.28;5171639;22;19926;-87
2024/03/15 13:02:28;;;;;;;;;;;;;;;-146.32;100.00;63746.28;5149468;22;19938;-88
2024/03/15 13:04:51;;;;;;;;;;;;;;;-146.32;100.00;63746.28;5149598;22;19926;-86
2024/03/15 13:07:12;;;;;;;;;;;;;;;-146.32;100.00;63746.28;5170495;22;19931;-85
2024/03/15 13:09:33;;;;;;;;;;;;;;;-146.32;100.00;63746.28;5169685;22;20041;-85
2024/03/15 13:11:54;;;;;;;;;;;;;;;-146.32;100.00;63746.28;5167157;22;20018;-86
2024/03/15 13:14:14;;;;;;;;;;;;;;;-146.32;100.00;63746.28;5170140;22;19950;-88
2024/03/15 13:16:35;;;;;;;;;;;;;;;-146.32;100.00;63746.28;5169434;22;20037;-86
2024/03/15 13:18:56;;;;;;;;;;;;;;;-146.32;100.00;63746.28;5170196;22;20542;-85
2024/03/15 13:21:16;;;;;;;;;;;;;;;-146.32;100.00;63746.28;5170228;22;19931;-85
2024/03/15 13:23:39;;;;;;;;;;;;;;;-146.32;100.00;63746.28;5170255;22;19925;-85